sensor_id;sensor_type;location;lat;lon;timestamp;P1;durP1;ratioP1;P2;durP2;ratioP2
55545;SDS011;44768;50.298;127.520;2022-09-09T00:02:28;26.33;;;4.05;;
55545;SDS011;44768;50.298;127.520;2022-09-09T00:18:17;18.95;;;2.75;;
55545;SDS011;44768;50.298;127.520;2022-09-09T00:23:25;10.60;;;2.00;;
55545;SDS011;44768;50.298;127.520;2022-09-09T00:28:29;16.02;;;2.20;;
55545;SDS011;44768;50.298;127.520;2022-09-09T00:33:32;10.75;;;2.28;;
55545;SDS011;44768;50.298;127.520;2022-09-09T00:38:40;13.68;;;2.28;;
55545;SDS011;44768;50.298;127.520;2022-09-09T00:43:42;22.17;;;3.35;;
55545;SDS011;44768;50.298;127.520;2022-09-09T01:04:41;7.10;;;1.25;;
55545;SDS011;44768;50.298;127.520;2022-09-09T01:14:59;5.93;;;1.60;;
55545;SDS011;44768;50.298;127.520;2022-09-09T01:25:29;12.25;;;2.22;;
55545;SDS011;44768;50.298;127.520;2022-09-09T01:30:32;7.43;;;1.67;;
55545;SDS011;44768;50.298;127.520;2022-09-09T01:40:36;13.65;;;1.55;;
55545;SDS011;44768;50.298;127.520;2022-09-09T01:45:38;8.13;;;1.60;;
55545;SDS011;44768;50.298;127.520;2022-09-09T01:50:40;5.82;;;1.77;;
55545;SDS011;44768;50.298;127.520;2022-09-09T01:55:42;8.80;;;2.08;;
55545;SDS011;44768;50.298;127.520;2022-09-09T02:00:56;10.00;;;2.05;;
55545;SDS011;44768;50.298;127.520;2022-09-09T02:11:18;8.88;;;1.52;;
55545;SDS011;44768;50.298;127.520;2022-09-09T02:21:20;9.82;;;2.15;;
55545;SDS011;44768;50.298;127.520;2022-09-09T02:26:24;16.88;;;5.18;;
55545;SDS011;44768;50.298;127.520;2022-09-09T02:31:27;11.68;;;2.22;;
55545;SDS011;44768;50.298;127.520;2022-09-09T02:36:29;11.43;;;2.63;;
55545;SDS011;44768;50.298;127.520;2022-09-09T02:41:35;13.32;;;2.35;;
55545;SDS011;44768;50.298;127.520;2022-09-09T02:46:57;13.77;;;1.98;;
55545;SDS011;44768;50.298;127.520;2022-09-09T02:52:04;6.32;;;2.03;;
55545;SDS011;44768;50.298;127.520;2022-09-09T02:57:22;7.80;;;2.15;;
55545;SDS011;44768;50.298;127.520;2022-09-09T03:02:24;6.82;;;1.80;;
55545;SDS011;44768;50.298;127.520;2022-09-09T03:07:26;11.15;;;1.58;;
55545;SDS011;44768;50.298;127.520;2022-09-09T03:12:28;12.30;;;2.50;;
55545;SDS011;44768;50.298;127.520;2022-09-09T03:17:29;8.43;;;1.67;;
55545;SDS011;44768;50.298;127.520;2022-09-09T03:22:30;13.52;;;2.05;;
55545;SDS011;44768;50.298;127.520;2022-09-09T03:27:31;12.10;;;3.33;;
55545;SDS011;44768;50.298;127.520;2022-09-09T03:32:33;14.70;;;3.53;;
55545;SDS011;44768;50.298;127.520;2022-09-09T03:37:35;12.63;;;2.47;;
55545;SDS011;44768;50.298;127.520;2022-09-09T03:42:37;14.55;;;3.00;;
55545;SDS011;44768;50.298;127.520;2022-09-09T03:47:39;9.70;;;2.28;;
55545;SDS011;44768;50.298;127.520;2022-09-09T03:57:41;6.65;;;1.85;;
55545;SDS011;44768;50.298;127.520;2022-09-09T04:07:44;6.03;;;1.73;;
55545;SDS011;44768;50.298;127.520;2022-09-09T04:17:46;8.93;;;1.70;;
55545;SDS011;44768;50.298;127.520;2022-09-09T04:22:48;5.82;;;1.40;;
55545;SDS011;44768;50.298;127.520;2022-09-09T04:27:58;16.40;;;5.28;;
55545;SDS011;44768;50.298;127.520;2022-09-09T04:32:59;13.63;;;1.90;;
55545;SDS011;44768;50.298;127.520;2022-09-09T04:38:01;13.90;;;2.10;;
55545;SDS011;44768;50.298;127.520;2022-09-09T04:43:05;18.48;;;6.40;;
55545;SDS011;44768;50.298;127.520;2022-09-09T04:48:06;12.70;;;2.75;;
55545;SDS011;44768;50.298;127.520;2022-09-09T04:53:08;16.77;;;2.20;;
55545;SDS011;44768;50.298;127.520;2022-09-09T04:58:09;17.33;;;2.85;;
55545;SDS011;44768;50.298;127.520;2022-09-09T05:03:10;14.15;;;1.70;;
55545;SDS011;44768;50.298;127.520;2022-09-09T05:08:13;35.38;;;3.17;;
55545;SDS011;44768;50.298;127.520;2022-09-09T05:13:14;23.88;;;4.18;;
55545;SDS011;44768;50.298;127.520;2022-09-09T05:18:15;36.10;;;4.72;;
55545;SDS011;44768;50.298;127.520;2022-09-09T05:23:17;22.13;;;2.70;;
55545;SDS011;44768;50.298;127.520;2022-09-09T05:28:18;5.97;;;1.52;;
55545;SDS011;44768;50.298;127.520;2022-09-09T05:33:19;22.45;;;2.35;;
55545;SDS011;44768;50.298;127.520;2022-09-09T05:38:22;26.88;;;2.10;;
55545;SDS011;44768;50.298;127.520;2022-09-09T05:43:26;17.33;;;1.98;;
55545;SDS011;44768;50.298;127.520;2022-09-09T05:48:29;14.68;;;2.20;;
55545;SDS011;44768;50.298;127.520;2022-09-09T05:53:31;25.17;;;2.35;;
55545;SDS011;44768;50.298;127.520;2022-09-09T05:58:35;23.15;;;4.15;;
55545;SDS011;44768;50.298;127.520;2022-09-09T06:03:39;17.77;;;2.15;;
55545;SDS011;44768;50.298;127.520;2022-09-09T06:08:41;16.45;;;1.70;;
55545;SDS011;44768;50.298;127.520;2022-09-09T06:13:44;15.20;;;2.10;;
55545;SDS011;44768;50.298;127.520;2022-09-09T06:18:46;17.02;;;1.58;;
55545;SDS011;44768;50.298;127.520;2022-09-09T06:23:49;9.32;;;2.03;;
55545;SDS011;44768;50.298;127.520;2022-09-09T06:28:52;17.95;;;2.22;;
55545;SDS011;44768;50.298;127.520;2022-09-09T06:33:54;35.40;;;3.42;;
55545;SDS011;44768;50.298;127.520;2022-09-09T06:38:56;21.05;;;2.42;;
55545;SDS011;44768;50.298;127.520;2022-09-09T06:43:57;16.85;;;1.92;;
55545;SDS011;44768;50.298;127.520;2022-09-09T06:48:58;18.77;;;2.30;;
55545;SDS011;44768;50.298;127.520;2022-09-09T06:54:01;24.02;;;2.20;;
55545;SDS011;44768;50.298;127.520;2022-09-09T06:59:04;22.27;;;2.83;;
55545;SDS011;44768;50.298;127.520;2022-09-09T07:04:05;24.27;;;2.72;;
55545;SDS011;44768;50.298;127.520;2022-09-09T07:09:09;17.90;;;2.03;;
55545;SDS011;44768;50.298;127.520;2022-09-09T07:14:11;21.42;;;2.75;;
55545;SDS011;44768;50.298;127.520;2022-09-09T07:19:16;23.02;;;4.47;;
55545;SDS011;44768;50.298;127.520;2022-09-09T07:24:17;20.25;;;2.42;;
55545;SDS011;44768;50.298;127.520;2022-09-09T07:29:18;18.70;;;2.67;;
55545;SDS011;44768;50.298;127.520;2022-09-09T07:34:19;10.15;;;2.25;;
55545;SDS011;44768;50.298;127.520;2022-09-09T07:39:22;23.77;;;3.03;;
55545;SDS011;44768;50.298;127.520;2022-09-09T07:44:24;20.30;;;3.83;;
55545;SDS011;44768;50.298;127.520;2022-09-09T07:49:28;13.57;;;2.72;;
55545;SDS011;44768;50.298;127.520;2022-09-09T07:54:29;15.45;;;2.30;;
55545;SDS011;44768;50.298;127.520;2022-09-09T07:59:30;21.65;;;2.58;;
55545;SDS011;44768;50.298;127.520;2022-09-09T08:04:31;24.27;;;2.60;;
55545;SDS011;44768;50.298;127.520;2022-09-09T08:09:32;30.05;;;5.00;;
55545;SDS011;44768;50.298;127.520;2022-09-09T08:14:34;22.98;;;2.78;;
55545;SDS011;44768;50.298;127.520;2022-09-09T08:19:36;34.95;;;3.40;;
55545;SDS011;44768;50.298;127.520;2022-09-09T08:24:37;43.35;;;3.72;;
55545;SDS011;44768;50.298;127.520;2022-09-09T08:29:38;31.77;;;3.90;;
55545;SDS011;44768;50.298;127.520;2022-09-09T08:34:40;44.78;;;5.40;;
55545;SDS011;44768;50.298;127.520;2022-09-09T08:39:43;23.25;;;2.80;;
55545;SDS011;44768;50.298;127.520;2022-09-09T08:44:55;31.38;;;3.38;;
55545;SDS011;44768;50.298;127.520;2022-09-09T09:00:44;22.85;;;3.28;;
55545;SDS011;44768;50.298;127.520;2022-09-09T09:06:06;18.00;;;4.82;;
55545;SDS011;44768;50.298;127.520;2022-09-09T09:11:10;16.73;;;2.90;;
55545;SDS011;44768;50.298;127.520;2022-09-09T09:16:16;21.17;;;3.15;;
55545;SDS011;44768;50.298;127.520;2022-09-09T09:21:27;21.13;;;3.35;;
55545;SDS011;44768;50.298;127.520;2022-09-09T09:26:31;29.38;;;3.67;;
55545;SDS011;44768;50.298;127.520;2022-09-09T09:31:33;32.92;;;4.00;;
55545;SDS011;44768;50.298;127.520;2022-09-09T09:41:44;30.15;;;4.03;;
55545;SDS011;44768;50.298;127.520;2022-09-09T09:46:46;34.78;;;4.00;;
55545;SDS011;44768;50.298;127.520;2022-09-09T09:51:47;30.58;;;3.45;;
55545;SDS011;44768;50.298;127.520;2022-09-09T09:56:49;39.40;;;4.35;;
55545;SDS011;44768;50.298;127.520;2022-09-09T10:06:51;35.17;;;4.50;;
55545;SDS011;44768;50.298;127.520;2022-09-09T10:27:19;25.33;;;5.45;;
55545;SDS011;44768;50.298;127.520;2022-09-09T10:37:41;20.92;;;4.80;;
55545;SDS011;44768;50.298;127.520;2022-09-09T10:42:44;25.25;;;4.70;;
55545;SDS011;44768;50.298;127.520;2022-09-09T10:58:14;29.00;;;5.80;;
55545;SDS011;44768;50.298;127.520;2022-09-09T11:03:21;31.25;;;4.80;;
55545;SDS011;44768;50.298;127.520;2022-09-09T11:08:26;32.25;;;6.25;;
55545;SDS011;44768;50.298;127.520;2022-09-09T11:13:34;15.27;;;4.05;;
55545;SDS011;44768;50.298;127.520;2022-09-09T11:18:38;18.70;;;4.43;;
55545;SDS011;44768;50.298;127.520;2022-09-09T11:23:46;31.85;;;5.22;;
55545;SDS011;44768;50.298;127.520;2022-09-09T11:44:31;14.15;;;4.93;;
55545;SDS011;44768;50.298;127.520;2022-09-09T11:54:57;22.08;;;5.63;;
55545;SDS011;44768;50.298;127.520;2022-09-09T12:00:04;41.08;;;8.23;;
55545;SDS011;44768;50.298;127.520;2022-09-09T12:05:07;23.92;;;6.13;;
55545;SDS011;44768;50.298;127.520;2022-09-09T12:15:29;17.48;;;6.00;;
55545;SDS011;44768;50.298;127.520;2022-09-09T12:25:55;15.18;;;5.60;;
55545;SDS011;44768;50.298;127.520;2022-09-09T12:31:05;25.77;;;6.80;;
55545;SDS011;44768;50.298;127.520;2022-09-09T12:36:13;17.88;;;5.13;;
55545;SDS011;44768;50.298;127.520;2022-09-09T12:41:22;23.70;;;4.60;;
55545;SDS011;44768;50.298;127.520;2022-09-09T12:46:35;20.35;;;4.57;;
55545;SDS011;44768;50.298;127.520;2022-09-09T12:51:37;13.13;;;4.13;;
55545;SDS011;44768;50.298;127.520;2022-09-09T12:56:38;15.95;;;5.40;;
55545;SDS011;44768;50.298;127.520;2022-09-09T13:06:40;16.08;;;3.53;;
55545;SDS011;44768;50.298;127.520;2022-09-09T13:11:42;11.15;;;4.00;;
55545;SDS011;44768;50.298;127.520;2022-09-09T13:17:22;15.65;;;4.30;;
55545;SDS011;44768;50.298;127.520;2022-09-09T13:22:21;13.98;;;4.18;;
55545;SDS011;44768;50.298;127.520;2022-09-09T13:27:35;23.58;;;4.32;;
55545;SDS011;44768;50.298;127.520;2022-09-09T13:32:39;11.13;;;4.72;;
55545;SDS011;44768;50.298;127.520;2022-09-09T13:37:44;19.23;;;6.97;;
55545;SDS011;44768;50.298;127.520;2022-09-09T13:42:51;18.40;;;6.85;;
55545;SDS011;44768;50.298;127.520;2022-09-09T13:47:54;25.33;;;8.65;;
55545;SDS011;44768;50.298;127.520;2022-09-09T13:52:57;20.35;;;7.18;;
55545;SDS011;44768;50.298;127.520;2022-09-09T13:58:02;16.60;;;6.18;;
55545;SDS011;44768;50.298;127.520;2022-09-09T14:03:08;25.10;;;10.10;;
55545;SDS011;44768;50.298;127.520;2022-09-09T14:08:10;8.45;;;2.88;;
55545;SDS011;44768;50.298;127.520;2022-09-09T14:13:14;11.15;;;3.45;;
55545;SDS011;44768;50.298;127.520;2022-09-09T14:18:16;14.98;;;4.53;;
55545;SDS011;44768;50.298;127.520;2022-09-09T14:28:19;7.10;;;3.03;;
55545;SDS011;44768;50.298;127.520;2022-09-09T14:33:21;12.48;;;6.10;;
55545;SDS011;44768;50.298;127.520;2022-09-09T14:43:23;16.55;;;8.43;;
55545;SDS011;44768;50.298;127.520;2022-09-09T14:48:25;4.85;;;3.10;;
55545;SDS011;44768;50.298;127.520;2022-09-09T14:53:26;14.23;;;6.82;;
55545;SDS011;44768;50.298;127.520;2022-09-09T14:58:30;10.68;;;5.85;;
55545;SDS011;44768;50.298;127.520;2022-09-09T15:03:31;12.05;;;4.72;;
55545;SDS011;44768;50.298;127.520;2022-09-09T15:13:34;11.70;;;4.05;;
55545;SDS011;44768;50.298;127.520;2022-09-09T15:18:39;19.75;;;4.43;;
55545;SDS011;44768;50.298;127.520;2022-09-09T15:23:43;19.42;;;6.80;;
55545;SDS011;44768;50.298;127.520;2022-09-09T15:28:45;14.45;;;4.07;;
55545;SDS011;44768;50.298;127.520;2022-09-09T15:38:49;13.05;;;4.50;;
55545;SDS011;44768;50.298;127.520;2022-09-09T15:43:51;14.32;;;5.50;;
55545;SDS011;44768;50.298;127.520;2022-09-09T15:48:53;9.80;;;4.20;;
55545;SDS011;44768;50.298;127.520;2022-09-09T15:53:57;9.02;;;3.75;;
55545;SDS011;44768;50.298;127.520;2022-09-09T15:58:59;14.32;;;5.75;;
55545;SDS011;44768;50.298;127.520;2022-09-09T16:04:00;14.75;;;5.20;;
55545;SDS011;44768;50.298;127.520;2022-09-09T16:09:02;19.90;;;5.43;;
55545;SDS011;44768;50.298;127.520;2022-09-09T16:14:04;11.20;;;5.10;;
55545;SDS011;44768;50.298;127.520;2022-09-09T16:19:07;18.15;;;6.20;;
55545;SDS011;44768;50.298;127.520;2022-09-09T16:24:11;11.38;;;7.00;;
55545;SDS011;44768;50.298;127.520;2022-09-09T16:29:13;19.38;;;7.18;;
55545;SDS011;44768;50.298;127.520;2022-09-09T16:34:15;19.88;;;6.50;;
55545;SDS011;44768;50.298;127.520;2022-09-09T16:39:19;12.70;;;7.10;;
55545;SDS011;44768;50.298;127.520;2022-09-09T16:44:21;14.85;;;6.20;;
55545;SDS011;44768;50.298;127.520;2022-09-09T16:49:22;9.10;;;5.38;;
55545;SDS011;44768;50.298;127.520;2022-09-09T16:54:24;8.95;;;5.30;;
55545;SDS011;44768;50.298;127.520;2022-09-09T16:59:27;10.32;;;5.53;;
55545;SDS011;44768;50.298;127.520;2022-09-09T17:09:53;12.23;;;5.85;;
55545;SDS011;44768;50.298;127.520;2022-09-09T17:14:54;11.63;;;4.78;;
55545;SDS011;44768;50.298;127.520;2022-09-09T17:19:57;10.98;;;5.20;;
55545;SDS011;44768;50.298;127.520;2022-09-09T17:24:58;8.20;;;5.35;;
55545;SDS011;44768;50.298;127.520;2022-09-09T17:30:00;9.70;;;6.05;;
55545;SDS011;44768;50.298;127.520;2022-09-09T17:40:03;10.48;;;5.90;;
55545;SDS011;44768;50.298;127.520;2022-09-09T17:50:06;9.98;;;6.57;;
55545;SDS011;44768;50.298;127.520;2022-09-09T17:55:08;18.77;;;6.65;;
55545;SDS011;44768;50.298;127.520;2022-09-09T18:00:10;12.77;;;6.57;;
55545;SDS011;44768;50.298;127.520;2022-09-09T18:05:11;17.70;;;7.75;;
55545;SDS011;44768;50.298;127.520;2022-09-09T18:10:12;13.10;;;7.03;;
55545;SDS011;44768;50.298;127.520;2022-09-09T18:15:14;13.45;;;6.38;;
55545;SDS011;44768;50.298;127.520;2022-09-09T18:20:15;14.32;;;6.78;;
55545;SDS011;44768;50.298;127.520;2022-09-09T18:30:17;12.02;;;6.72;;
55545;SDS011;44768;50.298;127.520;2022-09-09T18:35:20;11.52;;;5.75;;
55545;SDS011;44768;50.298;127.520;2022-09-09T18:40:21;21.58;;;7.18;;
55545;SDS011;44768;50.298;127.520;2022-09-09T18:45:23;9.98;;;5.60;;
55545;SDS011;44768;50.298;127.520;2022-09-09T18:50:24;9.85;;;6.07;;
55545;SDS011;44768;50.298;127.520;2022-09-09T18:55:26;14.95;;;6.22;;
55545;SDS011;44768;50.298;127.520;2022-09-09T19:00:28;20.13;;;6.82;;
55545;SDS011;44768;50.298;127.520;2022-09-09T19:05:32;20.98;;;7.18;;
55545;SDS011;44768;50.298;127.520;2022-09-09T19:10:37;18.00;;;7.55;;
55545;SDS011;44768;50.298;127.520;2022-09-09T19:15:38;17.77;;;6.25;;
55545;SDS011;44768;50.298;127.520;2022-09-09T19:20:40;22.45;;;7.30;;
55545;SDS011;44768;50.298;127.520;2022-09-09T19:25:41;13.48;;;6.45;;
55545;SDS011;44768;50.298;127.520;2022-09-09T19:30:42;12.15;;;8.73;;
55545;SDS011;44768;50.298;127.520;2022-09-09T19:35:55;13.77;;;6.75;;
55545;SDS011;44768;50.298;127.520;2022-09-09T19:41:01;15.10;;;7.43;;
55545;SDS011;44768;50.298;127.520;2022-09-09T19:46:03;20.05;;;7.80;;
55545;SDS011;44768;50.298;127.520;2022-09-09T19:51:07;10.13;;;5.75;;
55545;SDS011;44768;50.298;127.520;2022-09-09T19:56:09;16.90;;;7.57;;
55545;SDS011;44768;50.298;127.520;2022-09-09T20:01:12;16.65;;;6.50;;
55545;SDS011;44768;50.298;127.520;2022-09-09T20:06:18;12.63;;;6.68;;
55545;SDS011;44768;50.298;127.520;2022-09-09T20:11:20;11.60;;;6.80;;
55545;SDS011;44768;50.298;127.520;2022-09-09T20:16:22;12.80;;;6.22;;
55545;SDS011;44768;50.298;127.520;2022-09-09T20:21:25;13.45;;;5.93;;
55545;SDS011;44768;50.298;127.520;2022-09-09T20:26:27;8.60;;;6.28;;
55545;SDS011;44768;50.298;127.520;2022-09-09T20:31:31;13.20;;;6.47;;
55545;SDS011;44768;50.298;127.520;2022-09-09T20:36:33;9.73;;;6.18;;
55545;SDS011;44768;50.298;127.520;2022-09-09T20:41:35;9.52;;;6.65;;
55545;SDS011;44768;50.298;127.520;2022-09-09T20:46:38;11.75;;;6.63;;
55545;SDS011;44768;50.298;127.520;2022-09-09T20:51:39;17.35;;;6.93;;
55545;SDS011;44768;50.298;127.520;2022-09-09T20:56:42;12.65;;;6.22;;
55545;SDS011;44768;50.298;127.520;2022-09-09T21:01:45;13.10;;;5.97;;
55545;SDS011;44768;50.298;127.520;2022-09-09T21:06:49;11.15;;;5.78;;
55545;SDS011;44768;50.298;127.520;2022-09-09T21:11:51;7.38;;;5.80;;
55545;SDS011;44768;50.298;127.520;2022-09-09T21:16:53;12.02;;;5.70;;
55545;SDS011;44768;50.298;127.520;2022-09-09T21:21:54;12.95;;;6.00;;
55545;SDS011;44768;50.298;127.520;2022-09-09T21:26:56;29.23;;;7.75;;
55545;SDS011;44768;50.298;127.520;2022-09-09T21:32:00;47.78;;;8.52;;
55545;SDS011;44768;50.298;127.520;2022-09-09T21:37:03;33.95;;;8.70;;
55545;SDS011;44768;50.298;127.520;2022-09-09T21:42:04;28.15;;;7.75;;
55545;SDS011;44768;50.298;127.520;2022-09-09T21:47:05;35.58;;;8.40;;
55545;SDS011;44768;50.298;127.520;2022-09-09T21:52:06;26.25;;;8.32;;
55545;SDS011;44768;50.298;127.520;2022-09-09T21:57:09;27.85;;;8.02;;
55545;SDS011;44768;50.298;127.520;2022-09-09T22:02:11;23.08;;;7.97;;
55545;SDS011;44768;50.298;127.520;2022-09-09T22:07:13;27.77;;;9.27;;
55545;SDS011;44768;50.298;127.520;2022-09-09T22:12:17;63.70;;;11.07;;
55545;SDS011;44768;50.298;127.520;2022-09-09T22:17:21;31.42;;;8.85;;
55545;SDS011;44768;50.298;127.520;2022-09-09T22:22:24;36.65;;;8.55;;
55545;SDS011;44768;50.298;127.520;2022-09-09T22:27:25;59.72;;;10.73;;
55545;SDS011;44768;50.298;127.520;2022-09-09T22:32:27;49.90;;;10.10;;
55545;SDS011;44768;50.298;127.520;2022-09-09T22:42:28;41.15;;;9.73;;
55545;SDS011;44768;50.298;127.520;2022-09-09T22:47:30;56.03;;;9.55;;
55545;SDS011;44768;50.298;127.520;2022-09-09T22:52:31;50.10;;;9.30;;
55545;SDS011;44768;50.298;127.520;2022-09-09T22:57:32;54.85;;;9.10;;
55545;SDS011;44768;50.298;127.520;2022-09-09T23:02:35;33.17;;;8.27;;
55545;SDS011;44768;50.298;127.520;2022-09-09T23:07:39;30.33;;;8.00;;
55545;SDS011;44768;50.298;127.520;2022-09-09T23:12:40;53.80;;;9.15;;
55545;SDS011;44768;50.298;127.520;2022-09-09T23:17:42;72.40;;;10.25;;
55545;SDS011;44768;50.298;127.520;2022-09-09T23:22:44;39.65;;;7.63;;
55545;SDS011;44768;50.298;127.520;2022-09-09T23:27:45;50.90;;;9.48;;
55545;SDS011;44768;50.298;127.520;2022-09-09T23:32:47;46.90;;;8.68;;
55545;SDS011;44768;50.298;127.520;2022-09-09T23:37:48;57.58;;;9.00;;
55545;SDS011;44768;50.298;127.520;2022-09-09T23:42:50;30.25;;;7.50;;
55545;SDS011;44768;50.298;127.520;2022-09-09T23:47:51;26.13;;;7.28;;
55545;SDS011;44768;50.298;127.520;2022-09-09T23:52:55;28.23;;;6.25;;
55545;SDS011;44768;50.298;127.520;2022-09-09T23:57:57;27.45;;;6.40;;
